Time;durP1;ratioP1;P1;durP2;ratioP2;P2;SDS_P1;SDS_P2;PMS_P1;PMS_P2;Temp;Humidity;BMP_temperature;BMP_pressure;BME280_temperature;BME280_humidity;BME280_pressure;Samples;Min_cycle;Max_cycle;Signal;HPM_P1;HPM_P2
2022/12/22 03:25:57;;;;;;;15.57;7.00;;;;;;;;;;4919735;29;20047;-76
2022/12/22 03:28:27;;;;;;;12.10;6.40;;;;;;;;;;4918477;29;20113;-75
2022/12/22 03:30:57;;;;;;;14.87;7.40;;;;;;;;;;4934029;29;20046;-75
2022/12/22 03:33:24;;;;;;;13.83;7.07;;;;;;;;;;4918582;29;20040;-76
2022/12/22 03:35:50;;;;;;;15.63;6.77;;;;;;;;;;4934316;29;20344;-77
2022/12/22 03:38:16;;;;;;;14.73;7.50;;;;;;;;;;4916563;29;20036;-77
2022/12/22 03:40:41;;;;;;;15.63;7.27;;;;;;;;;;4932517;29;20106;-77
2022/12/22 03:48:41;;;;;;;16.10;7.53;;;;;;;;;;4932466;29;20095;-77
2022/12/22 03:51:07;;;;;;;13.67;8.30;;;;;;;;;;4932111;29;20394;-78
2022/12/22 03:53:34;;;;;;;16.40;8.13;;;;;;;;;;4932426;29;20135;-77
2022/12/22 03:56:00;;;;;;;15.87;7.73;;;;;;;;;;4933971;29;20123;-77
2022/12/22 03:58:27;;;;;;;17.97;8.47;;;;;;;;;;4933924;29;20071;-78
2022/12/22 04:01:03;;;;;;;16.33;8.30;;;;;;;;;;4950162;29;20055;-76
2022/12/22 04:03:29;;;;;;;16.00;8.20;;;;;;;;;;4934041;29;20561;-77
2022/12/22 04:05:54;;;;;;;18.70;8.63;;;;;;;;;;4933695;29;20062;-77
2022/12/22 04:08:20;;;;;;;20.37;8.53;;;;;;;;;;4933897;29;20040;-78
2022/12/22 04:13:33;;;;;;;21.07;9.23;;;;;;;;;;4933672;29;20050;-78
2022/12/22 04:15:59;;;;;;;19.73;9.77;;;;;;;;;;4918027;29;20130;-78
2022/12/22 04:18:25;;;;;;;20.27;9.83;;;;;;;;;;4933640;29;20062;-77
2022/12/22 04:20:54;;;;;;;19.90;9.83;;;;;;;;;;4933802;29;20039;-74
2022/12/22 04:23:20;;;;;;;26.90;10.83;;;;;;;;;;4933234;29;20043;-76
2022/12/22 04:25:47;;;;;;;22.17;10.73;;;;;;;;;;4933392;29;20043;-77
2022/12/22 04:28:13;;;;;;;23.60;11.30;;;;;;;;;;4934103;29;20071;-76
2022/12/22 04:30:39;;;;;;;26.83;12.03;;;;;;;;;;4936480;29;20062;-75
2022/12/22 04:33:05;;;;;;;25.10;11.33;;;;;;;;;;4936190;29;20041;-75
2022/12/22 04:35:32;;;;;;;24.43;11.87;;;;;;;;;;4936569;29;20043;-76
2022/12/22 04:37:58;;;;;;;27.17;12.83;;;;;;;;;;4953336;29;20455;-76
2022/12/22 04:40:24;;;;;;;26.20;12.73;;;;;;;;;;4952780;28;20062;-75
2022/12/22 04:42:50;;;;;;;23.73;12.03;;;;;;;;;;4937015;29;20039;-75
2022/12/22 04:45:16;;;;;;;24.23;11.60;;;;;;;;;;4921887;29;20444;-76
2022/12/22 04:47:43;;;;;;;31.97;13.90;;;;;;;;;;4954609;28;20038;-76
2022/12/22 04:50:10;;;;;;;29.07;13.03;;;;;;;;;;4921624;29;20043;-76
2022/12/22 04:52:39;;;;;;;25.40;13.50;;;;;;;;;;4937463;29;20050;-76
2022/12/22 04:55:05;;;;;;;30.30;14.73;;;;;;;;;;4937690;29;20047;-76
2022/12/22 04:57:31;;;;;;;26.90;12.87;;;;;;;;;;4921615;29;20477;-76
2022/12/22 04:59:57;;;;;;;30.53;14.33;;;;;;;;;;4932677;29;20153;-74
2022/12/22 05:02:23;;;;;;;30.40;14.93;;;;;;;;;;4951233;29;20043;-74
2022/12/22 05:04:49;;;;;;;35.87;15.33;;;;;;;;;;4919577;29;20065;-74
2022/12/22 05:07:15;;;;;;;34.40;15.23;;;;;;;;;;4920006;29;20045;-72
2022/12/22 05:09:40;;;;;;;35.97;15.87;;;;;;;;;;4919944;29;20130;-72
2022/12/22 05:12:53;;;;;;;38.13;16.17;;;;;;;;;;4918903;29;20034;-72
2022/12/22 05:14:52;;;;;;;34.83;15.97;;;;;;;;;;4935425;29;20043;-73
2022/12/22 05:17:18;;;;;;;39.17;16.53;;;;;;;;;;4919449;29;20050;-74
2022/12/22 05:19:44;;;;;;;35.77;16.23;;;;;;;;;;4919782;29;20039;-73
2022/12/22 05:22:11;;;;;;;39.00;17.17;;;;;;;;;;4935604;29;20038;-73
2022/12/22 05:24:37;;;;;;;41.53;18.13;;;;;;;;;;4935490;29;20142;-73
2022/12/22 05:27:02;;;;;;;41.70;18.47;;;;;;;;;;4919595;29;20122;-72
2022/12/22 05:29:28;;;;;;;40.97;18.83;;;;;;;;;;4935835;29;20051;-74
2022/12/22 05:31:54;;;;;;;43.60;17.70;;;;;;;;;;4919800;29;20074;-74
2022/12/22 05:34:19;;;;;;;37.03;17.03;;;;;;;;;;4935456;29;20071;-75
2022/12/22 05:36:45;;;;;;;41.77;19.03;;;;;;;;;;4936155;29;20043;-71
2022/12/22 05:39:11;;;;;;;53.13;20.73;;;;;;;;;;4920515;29;20082;-71
2022/12/22 05:41:37;;;;;;;47.40;19.23;;;;;;;;;;4919906;29;20098;-72
2022/12/22 05:44:03;;;;;;;51.27;21.67;;;;;;;;;;4919452;29;20106;-72
2022/12/22 05:46:28;;;;;;;48.50;21.10;;;;;;;;;;4935804;29;20136;-70
2022/12/22 05:48:54;;;;;;;57.33;21.27;;;;;;;;;;4935771;29;20043;-72
2022/12/22 05:51:20;;;;;;;46.93;20.10;;;;;;;;;;4934715;28;20134;-72
2022/12/22 05:53:45;;;;;;;50.63;22.30;;;;;;;;;;4938700;29;20042;-74
2022/12/22 05:56:11;;;;;;;58.67;21.03;;;;;;;;;;4923656;29;20118;-75
2022/12/22 05:58:38;;;;;;;48.50;21.30;;;;;;;;;;4939445;29;20041;-69
2022/12/22 06:01:04;;;;;;;43.47;21.60;;;;;;;;;;4955297;29;20031;-72
2022/12/22 06:03:30;;;;;;;52.93;21.10;;;;;;;;;;4939129;29;20481;-71
2022/12/22 06:05:56;;;;;;;48.73;21.53;;;;;;;;;;4923469;29;20051;-72
2022/12/22 06:08:22;;;;;;;55.93;21.83;;;;;;;;;;4955415;29;20190;-72
2022/12/22 06:10:47;;;;;;;58.20;22.23;;;;;;;;;;4938109;29;20058;-71
2022/12/22 06:13:13;;;;;;;50.17;21.83;;;;;;;;;;4919440;29;20130;-71
2022/12/22 06:15:39;;;;;;;52.63;22.50;;;;;;;;;;4935561;29;20039;-69
2022/12/22 06:18:05;;;;;;;46.00;20.43;;;;;;;;;;4935952;29;20478;-70
2022/12/22 06:20:30;;;;;;;51.57;22.00;;;;;;;;;;4952021;29;20046;-72
2022/12/22 06:22:56;;;;;;;45.60;21.10;;;;;;;;;;4919559;29;20028;-73
2022/12/22 06:25:22;;;;;;;45.77;20.60;;;;;;;;;;4919338;29;20419;-73
2022/12/22 06:27:48;;;;;;;48.07;21.93;;;;;;;;;;4919766;29;20035;-70
2022/12/22 06:30:14;;;;;;;50.53;21.30;;;;;;;;;;4920349;29;20497;-73
2022/12/22 06:32:40;;;;;;;49.47;21.83;;;;;;;;;;4951537;29;20442;-72
2022/12/22 06:35:08;;;;;;;47.13;21.10;;;;;;;;;;4951338;29;20079;-72
2022/12/22 06:37:34;;;;;;;43.93;19.43;;;;;;;;;;4935552;29;20198;-69
2022/12/22 06:40:00;;;;;;;49.77;20.77;;;;;;;;;;4935639;29;20822;-72
2022/12/22 06:45:10;;;;;;;40.07;18.07;;;;;;;;;;4919316;29;20466;-73
2022/12/22 06:47:36;;;;;;;35.53;17.37;;;;;;;;;;4936051;29;20052;-72
2022/12/22 06:50:02;;;;;;;43.57;18.10;;;;;;;;;;4904181;29;20046;-73
2022/12/22 06:52:28;;;;;;;44.03;19.47;;;;;;;;;;4936573;29;20094;-73
2022/12/22 06:54:56;;;;;;;42.10;19.50;;;;;;;;;;4938206;29;20046;-72
2022/12/22 06:57:22;;;;;;;37.00;19.13;;;;;;;;;;4922786;29;20050;-73
2022/12/22 06:59:49;;;;;;;41.90;18.40;;;;;;;;;;4933591;29;20031;-69
2022/12/22 07:02:14;;;;;;;40.90;18.83;;;;;;;;;;4954171;29;20474;-72
2022/12/22 07:04:40;;;;;;;46.07;18.20;;;;;;;;;;4936122;29;20047;-72
2022/12/22 07:07:06;;;;;;;36.03;18.87;;;;;;;;;;4937424;29;20043;-73
2022/12/22 07:09:32;;;;;;;41.83;18.43;;;;;;;;;;4936955;29;20488;-73
2022/12/22 07:11:58;;;;;;;36.17;18.10;;;;;;;;;;4921695;29;20054;-70
2022/12/22 07:14:26;;;;;;;36.50;17.07;;;;;;;;;;4922186;29;20046;-69
2022/12/22 07:16:55;;;;;;;40.53;17.47;;;;;;;;;;4937337;29;20106;-71
2022/12/22 07:19:21;;;;;;;40.50;17.90;;;;;;;;;;4936932;29;20041;-69
2022/12/22 07:21:47;;;;;;;34.93;17.90;;;;;;;;;;4922426;29;20350;-68
2022/12/22 07:24:15;;;;;;;34.83;16.93;;;;;;;;;;4922124;29;20050;-69
2022/12/22 07:26:41;;;;;;;31.73;16.57;;;;;;;;;;4921304;29;20039;-69
2022/12/22 07:29:07;;;;;;;30.87;16.70;;;;;;;;;;4937511;29;20046;-72
2022/12/22 07:31:33;;;;;;;34.60;17.20;;;;;;;;;;4921653;29;20065;-71
2022/12/22 07:33:59;;;;;;;32.27;16.83;;;;;;;;;;4953728;29;20043;-69
2022/12/22 07:36:25;;;;;;;32.33;17.20;;;;;;;;;;4921708;29;20394;-70
2022/12/22 07:38:51;;;;;;;32.23;16.50;;;;;;;;;;4921256;29;20486;-69
2022/12/22 07:44:04;;;;;;;29.30;16.50;;;;;;;;;;4937397;29;20050;-71
2022/12/22 07:46:32;;;;;;;32.07;16.57;;;;;;;;;;4921237;29;20422;-70
2022/12/22 07:51:43;;;;;;;32.40;16.20;;;;;;;;;;4938631;29;20039;-69
2022/12/22 07:54:09;;;;;;;30.70;16.40;;;;;;;;;;4936521;29;20050;-70
2022/12/22 07:56:35;;;;;;;31.47;16.40;;;;;;;;;;4919196;29;20095;-68
2022/12/22 07:59:01;;;;;;;28.93;15.20;;;;;;;;;;4902233;29;20062;-69
2022/12/22 08:01:27;;;;;;;28.17;14.73;;;;;;;;;;4902093;29;20391;-70
2022/12/22 08:03:53;;;;;;;33.93;15.53;;;;;;;;;;4918213;29;20371;-70
2022/12/22 08:06:19;;;;;;;32.40;15.00;;;;;;;;;;4946753;29;20474;-68
2022/12/22 08:08:46;;;;;;;32.20;15.90;;;;;;;;;;4939446;29;20430;-67
2022/12/22 08:11:18;;;;;;;34.30;16.95;;;;;;;;;;4935857;29;20051;-69
2022/12/22 08:13:48;;;;;;;32.50;16.00;;;;;;;;;;4941756;29;20561;-75
2022/12/22 08:16:16;;;;;;;25.50;15.23;;;;;;;;;;4952701;28;20035;-69
2022/12/22 08:18:43;;;;;;;31.67;15.30;;;;;;;;;;4937002;29;20122;-70
2022/12/22 08:21:08;;;;;;;32.10;15.90;;;;;;;;;;4936145;29;20327;-71
2022/12/22 08:23:34;;;;;;;29.13;16.00;;;;;;;;;;4920560;29;20576;-71
2022/12/22 08:26:06;;;;;;;29.93;16.40;;;;;;;;;;4920518;29;20039;-72
2022/12/22 08:28:33;;;;;;;26.50;15.27;;;;;;;;;;4920286;29;20071;-69
2022/12/22 08:30:59;;;;;;;33.10;16.57;;;;;;;;;;4935575;28;20043;-74
2022/12/22 08:33:25;;;;;;;27.70;15.90;;;;;;;;;;4918745;29;20035;-68
2022/12/22 08:35:51;;;;;;;22.23;13.40;;;;;;;;;;4918828;29;20500;-68
2022/12/22 08:38:16;;;;;;;33.33;16.20;;;;;;;;;;4920743;29;20031;-70
2022/12/22 08:40:44;;;;;;;33.33;16.53;;;;;;;;;;4920798;29;20536;-70
2022/12/22 08:43:10;;;;;;;31.87;17.17;;;;;;;;;;4951989;29;20490;-70
2022/12/22 08:45:35;;;;;;;34.30;16.53;;;;;;;;;;4936234;29;20051;-69
2022/12/22 08:48:01;;;;;;;33.73;16.70;;;;;;;;;;4920709;29;20041;-68
2022/12/22 08:50:29;;;;;;;31.67;16.40;;;;;;;;;;4920907;29;20381;-68
2022/12/22 08:53:03;;;;;;;28.60;14.53;;;;;;;;;;4951315;29;20474;-69
2022/12/22 08:55:28;;;;;;;25.90;14.80;;;;;;;;;;4935473;29;20496;-68
2022/12/22 08:57:54;;;;;;;34.90;15.90;;;;;;;;;;4918463;29;20027;-68
2022/12/22 09:00:20;;;;;;;28.77;15.67;;;;;;;;;;4919924;29;20035;-67
2022/12/22 09:02:46;;;;;;;32.50;15.93;;;;;;;;;;4920903;29;20046;-70
2022/12/22 09:05:12;;;;;;;31.73;15.93;;;;;;;;;;4935572;29;20173;-69
2022/12/22 09:07:37;;;;;;;31.97;16.97;;;;;;;;;;4920014;29;20126;-68
2022/12/22 09:10:07;;;;;;;36.00;15.90;;;;;;;;;;4951967;29;20367;-68
2022/12/22 09:12:33;;;;;;;30.77;16.57;;;;;;;;;;4951822;28;20089;-69
2022/12/22 09:15:00;;;;;;;24.20;14.17;;;;;;;;;;4936269;29;20043;-69
2022/12/22 09:17:26;;;;;;;26.90;14.60;;;;;;;;;;4935127;29;20102;-70
2022/12/22 09:19:51;;;;;;;26.30;15.40;;;;;;;;;;4919363;29;20047;-71
2022/12/22 09:22:17;;;;;;;32.50;16.37;;;;;;;;;;4920314;29;20039;-71
2022/12/22 09:24:43;;;;;;;30.17;15.43;;;;;;;;;;4919841;29;20371;-72
2022/12/22 09:27:09;;;;;;;30.87;15.50;;;;;;;;;;4918704;29;20031;-72
2022/12/22 09:29:36;;;;;;;26.80;15.53;;;;;;;;;;4935982;29;20053;-71
2022/12/22 09:32:02;;;;;;;27.17;14.80;;;;;;;;;;4935582;29;20466;-71
2022/12/22 09:34:28;;;;;;;25.03;13.63;;;;;;;;;;4920022;29;20036;-71
2022/12/22 09:36:54;;;;;;;28.90;15.50;;;;;;;;;;4919951;29;20553;-71
2022/12/22 09:39:20;;;;;;;28.93;15.17;;;;;;;;;;4919673;29;20050;-69
2022/12/22 09:41:49;;;;;;;28.77;15.47;;;;;;;;;;4920650;29;20386;-72
2022/12/22 09:44:15;;;;;;;29.60;15.60;;;;;;;;;;4919820;29;20082;-70
2022/12/22 09:46:41;;;;;;;27.73;15.90;;;;;;;;;;4919401;29;20122;-72
2022/12/22 09:49:09;;;;;;;29.33;14.33;;;;;;;;;;4919541;29;20042;-74
2022/12/22 09:51:42;;;;;;;25.55;14.05;;;;;;;;;;4935452;29;20390;-73
2022/12/22 09:54:09;;;;;;;27.40;15.98;;;;;;;;;;4920158;29;20042;-73
2022/12/22 09:56:35;;;;;;;29.77;14.87;;;;;;;;;;4920512;29;20036;-76
2022/12/22 09:59:01;;;;;;;25.17;15.10;;;;;;;;;;4920319;29;20086;-75
2022/12/22 10:01:27;;;;;;;27.10;15.10;;;;;;;;;;4919899;29;20379;-77
2022/12/22 10:04:01;;;;;;;25.43;14.90;;;;;;;;;;4919791;29;20169;-74
2022/12/22 10:06:33;;;;;;;33.03;16.17;;;;;;;;;;4919365;29;20055;-74
2022/12/22 10:09:10;;;;;;;28.37;15.27;;;;;;;;;;4919867;29;20496;-74
2022/12/22 10:11:36;;;;;;;31.03;15.00;;;;;;;;;;4935263;29;20035;-74
2022/12/22 10:14:02;;;;;;;26.63;15.07;;;;;;;;;;4920079;29;20154;-73
2022/12/22 10:16:28;;;;;;;29.87;16.87;;;;;;;;;;4935553;29;20402;-77
2022/12/22 10:19:06;;;;;;;27.10;14.30;;;;;;;;;;4919299;29;20042;-74
2022/12/22 10:21:31;;;;;;;26.33;15.47;;;;;;;;;;4935062;29;20548;-71
2022/12/22 10:23:57;;;;;;;27.97;16.07;;;;;;;;;;4919511;29;20043;-73
2022/12/22 10:26:28;;;;;;;33.73;16.17;;;;;;;;;;4918936;29;20043;-74
2022/12/22 10:28:57;;;;;;;25.92;15.77;;;;;;;;;;4919899;28;20044;-73
2022/12/22 10:31:26;;;;;;;28.90;15.23;;;;;;;;;;4919814;29;20506;-72
2022/12/22 10:33:53;;;;;;;26.67;15.07;;;;;;;;;;4919576;29;20051;-72
2022/12/22 10:36:39;;;;;;;27.50;14.90;;;;;;;;;;4920058;29;20039;-72
2022/12/22 10:39:07;;;;;;;28.27;15.67;;;;;;;;;;4920153;29;20129;-73
2022/12/22 10:41:36;;;;;;;32.37;15.80;;;;;;;;;;4936868;29;20134;-71
2022/12/22 10:44:04;;;;;;;29.23;16.03;;;;;;;;;;4922746;29;20047;-72
2022/12/22 10:46:30;;;;;;;33.43;15.87;;;;;;;;;;4922338;29;20042;-73
2022/12/22 10:49:11;;;;;;;31.10;16.73;;;;;;;;;;4937424;29;20042;-72
2022/12/22 10:51:37;;;;;;;36.80;17.57;;;;;;;;;;4938737;29;20689;-72
2022/12/22 10:54:02;;;;;;;28.27;15.43;;;;;;;;;;4923144;29;20066;-72
2022/12/22 10:56:29;;;;;;;32.67;16.20;;;;;;;;;;4938595;29;20438;-73
2022/12/22 10:59:03;;;;;;;34.63;17.07;;;;;;;;;;4938737;29;20043;-73
2022/12/22 11:01:33;;;;;;;34.53;16.90;;;;;;;;;;4939029;29;20046;-73
2022/12/22 11:04:14;;;;;;;30.38;15.95;;;;;;;;;;4923056;29;20474;-73
2022/12/22 11:06:41;;;;;;;34.92;16.83;;;;;;;;;;4922165;29;20062;-73
2022/12/22 11:09:08;;;;;;;28.10;14.80;;;;;;;;;;4922698;29;20121;-73
2022/12/22 11:11:37;;;;;;;39.23;16.60;;;;;;;;;;4938239;29;20043;-73
2022/12/22 11:14:15;;;;;;;32.60;16.13;;;;;;;;;;4922441;29;20363;-73
2022/12/22 11:16:44;;;;;;;37.17;17.30;;;;;;;;;;4938395;29;20665;-72
2022/12/22 11:19:30;;;;;;;39.27;17.60;;;;;;;;;;4922325;29;20035;-73
2022/12/22 11:22:05;;;;;;;34.10;16.67;;;;;;;;;;4922246;29;20086;-74
2022/12/22 11:24:50;;;;;;;34.10;18.03;;;;;;;;;;4922429;29;20049;-74
2022/12/22 11:27:21;;;;;;;41.23;17.10;;;;;;;;;;4921665;29;20430;-73
2022/12/22 11:30:08;;;;;;;38.33;17.08;;;;;;;;;;4922577;29;20098;-72
2022/12/22 11:32:52;;;;;;;38.37;17.50;;;;;;;;;;4938366;29;20188;-72
2022/12/22 11:35:26;;;;;;;38.03;18.77;;;;;;;;;;4903045;29;20039;-71
2022/12/22 11:37:55;;;;;;;43.30;18.70;;;;;;;;;;4919010;29;20050;-74
2022/12/22 11:40:31;;;;;;;42.73;18.63;;;;;;;;;;4919045;29;20062;-74
2022/12/22 11:43:15;;;;;;;43.40;18.63;;;;;;;;;;4920742;29;20042;-71
2022/12/22 11:46:02;;;;;;;38.63;19.47;;;;;;;;;;4920897;29;20090;-70
2022/12/22 11:48:51;;;;;;;51.20;21.03;;;;;;;;;;4921552;29;20035;-71
2022/12/22 11:51:29;;;;;;;44.77;19.83;;;;;;;;;;4920261;29;20130;-71
2022/12/22 11:54:13;;;;;;;45.00;20.40;;;;;;;;;;4921655;29;20049;-71
2022/12/22 11:56:45;;;;;;;49.70;20.73;;;;;;;;;;4935963;29;20071;-71
2022/12/22 11:59:49;;;;;;;38.83;18.30;;;;;;;;;;4935528;28;20035;-72
2022/12/22 12:02:20;;;;;;;48.85;19.48;;;;;;;;;;4884410;29;20051;-72
2022/12/22 12:04:48;;;;;;;55.93;21.17;;;;;;;;;;4930722;28;20509;-72
2022/12/22 12:07:26;;;;;;;48.03;20.33;;;;;;;;;;4938963;28;20125;-71
2022/12/22 12:10:04;;;;;;;39.13;18.07;;;;;;;;;;4940668;28;20057;-74
2022/12/22 12:12:56;;;;;;;41.33;18.37;;;;;;;;;;4939769;28;20516;-72
2022/12/22 12:15:26;;;;;;;50.50;19.83;;;;;;;;;;4918489;28;20047;-72
2022/12/22 12:18:05;;;;;;;52.43;19.73;;;;;;;;;;4956797;28;20039;-71
2022/12/22 12:20:38;;;;;;;45.43;19.77;;;;;;;;;;4956009;28;20053;-71
2022/12/22 12:23:07;;;;;;;45.97;18.97;;;;;;;;;;4940393;28;20073;-71
2022/12/22 12:25:46;;;;;;;41.97;19.10;;;;;;;;;;4940058;28;20421;-72
2022/12/22 12:28:22;;;;;;;45.20;19.70;;;;;;;;;;4940008;28;20437;-71
2022/12/22 12:30:48;;;;;;;46.50;18.90;;;;;;;;;;4942295;28;20039;-73
2022/12/22 12:33:20;;;;;;;51.00;18.70;;;;;;;;;;4943472;28;20378;-72
2022/12/22 12:35:48;;;;;;;46.43;20.33;;;;;;;;;;4960846;28;20039;-72
2022/12/22 12:38:23;;;;;;;47.40;20.43;;;;;;;;;;4942222;28;20035;-74
2022/12/22 12:40:55;;;;;;;47.97;20.67;;;;;;;;;;4940563;28;20465;-74
2022/12/22 12:43:22;;;;;;;45.53;19.47;;;;;;;;;;4956440;28;20521;-73
2022/12/22 12:45:48;;;;;;;41.70;18.92;;;;;;;;;;4955810;28;20393;-74
2022/12/22 12:48:23;;;;;;;41.77;19.03;;;;;;;;;;4955899;28;20038;-73
2022/12/22 12:50:49;;;;;;;50.27;19.03;;;;;;;;;;4956653;28;20496;-73
2022/12/22 12:53:15;;;;;;;49.73;19.83;;;;;;;;;;4939940;28;20057;-74
2022/12/22 12:55:50;;;;;;;44.47;18.50;;;;;;;;;;4971685;28;20050;-76
2022/12/22 12:58:37;;;;;;;40.93;18.67;;;;;;;;;;4939612;28;20496;-74
2022/12/22 13:01:03;;;;;;;50.17;20.07;;;;;;;;;;4954735;28;20042;-73
2022/12/22 13:03:29;;;;;;;42.00;19.23;;;;;;;;;;4939541;28;20031;-72
2022/12/22 13:05:58;;;;;;;55.17;21.13;;;;;;;;;;4939289;28;20054;-72
2022/12/22 13:08:25;;;;;;;50.13;21.50;;;;;;;;;;4971154;28;20508;-70
2022/12/22 13:10:51;;;;;;;44.63;19.37;;;;;;;;;;4940161;28;20030;-73
2022/12/22 13:13:26;;;;;;;39.07;17.63;;;;;;;;;;4938797;28;20042;-72
2022/12/22 13:16:02;;;;;;;50.93;19.87;;;;;;;;;;4939736;28;20038;-73
2022/12/22 13:18:28;;;;;;;46.97;19.67;;;;;;;;;;4939212;28;20101;-73
2022/12/22 13:20:58;;;;;;;79.90;23.60;;;;;;;;;;4939681;28;20469;-70
2022/12/22 13:23:27;;;;;;;59.90;21.33;;;;;;;;;;4939378;28;20057;-72
2022/12/22 13:25:58;;;;;;;57.07;21.07;;;;;;;;;;4955236;28;20512;-74
2022/12/22 13:28:25;;;;;;;90.60;22.73;;;;;;;;;;4939389;28;20042;-74
2022/12/22 13:30:55;;;;;;;69.90;21.00;;;;;;;;;;4939774;28;20085;-73
2022/12/22 13:33:24;;;;;;;55.38;21.02;;;;;;;;;;4939271;28;20039;-73
2022/12/22 13:35:50;;;;;;;56.47;18.93;;;;;;;;;;4955153;28;20042;-73
2022/12/22 13:38:33;;;;;;;60.83;20.73;;;;;;;;;;4955014;28;20051;-72
2022/12/22 13:41:01;;;;;;;56.20;20.00;;;;;;;;;;4955289;28;20053;-73
2022/12/22 13:43:31;;;;;;;73.33;22.73;;;;;;;;;;4938895;28;20039;-72
2022/12/22 13:45:59;;;;;;;514.95;38.40;;;;;;;;;;4954941;28;20051;-72
2022/12/22 13:48:29;;;;;;;79.43;22.37;;;;;;;;;;4939268;28;20035;-70
2022/12/22 13:50:58;;;;;;;133.27;25.33;;;;;;;;;;4936404;28;20047;-72
2022/12/22 13:53:45;;;;;;;160.07;26.40;;;;;;;;;;4936061;29;20130;-74
2022/12/22 13:56:16;;;;;;;82.50;23.30;;;;;;;;;;4936092;29;20126;-74
2022/12/22 13:58:45;;;;;;;226.98;29.42;;;;;;;;;;4935851;29;20615;-74
2022/12/22 14:01:11;;;;;;;178.93;25.30;;;;;;;;;;4935844;29;20078;-73
2022/12/22 14:03:38;;;;;;;80.67;22.23;;;;;;;;;;4919825;29;20039;-73
2022/12/22 14:06:19;;;;;;;157.57;24.47;;;;;;;;;;4919626;29;20063;-72
2022/12/22 14:08:44;;;;;;;;;;;;;;;;;;4920421;29;20035;-74
2022/12/22 14:11:10;;;;;;;138.53;24.17;;;;;;;;;;4920009;29;20324;-73
2022/12/22 14:13:38;;;;;;;376.47;35.20;;;;;;;;;;4936391;29;20105;-73
2022/12/22 14:16:07;;;;;;;96.37;22.37;;;;;;;;;;4923924;29;20043;-74
2022/12/22 14:18:35;;;;;;;899.77;60.83;;;;;;;;;;4923655;29;20035;-74
2022/12/22 14:21:02;;;;;;;121.93;24.20;;;;;;;;;;4939434;29;20054;-74
2022/12/22 14:23:37;;;;;;;403.17;36.07;;;;;;;;;;4923326;29;20389;-73
2022/12/22 14:26:07;;;;;;;259.03;29.47;;;;;;;;;;4939193;29;20129;-73
2022/12/22 14:28:49;;;;;;;336.95;37.65;;;;;;;;;;4923401;29;20066;-72
2022/12/22 14:31:14;;;;;;;225.80;27.40;;;;;;;;;;4939422;29;20429;-72
2022/12/22 14:33:49;;;;;;;630.67;44.10;;;;;;;;;;4922330;29;20035;-73
2022/12/22 14:36:15;;;;;;;350.70;32.77;;;;;;;;;;4938694;29;20058;-72
2022/12/22 14:38:42;;;;;;;128.43;24.07;;;;;;;;;;4922822;29;20470;-74
2022/12/22 14:41:40;;;;;;;104.73;24.50;;;;;;;;;;4938137;29;20031;-73
2022/12/22 14:44:01;;;;;;;117.83;24.30;;;;;;;;;;4938261;29;20035;-73
2022/12/22 14:46:27;;;;;;;70.65;25.73;;;;;;;;;;4954363;29;20046;-70
2022/12/22 14:48:53;;;;;;;123.97;24.50;;;;;;;;;;4938238;29;20043;-73
2022/12/22 14:51:19;;;;;;;89.10;23.43;;;;;;;;;;4922643;29;20039;-73
2022/12/22 14:53:52;;;;;;;85.47;23.97;;;;;;;;;;4922642;29;20039;-73
2022/12/22 14:56:18;;;;;;;103.83;24.03;;;;;;;;;;4922254;29;20042;-72
2022/12/22 14:58:45;;;;;;;60.10;21.53;;;;;;;;;;4922426;29;20106;-74
2022/12/22 15:01:10;;;;;;;92.80;22.23;;;;;;;;;;4937921;29;20036;-73
2022/12/22 15:03:36;;;;;;;405.03;35.40;;;;;;;;;;4922168;29;20046;-72
2022/12/22 15:06:25;;;;;;;137.77;25.20;;;;;;;;;;4938493;29;20070;-73
2022/12/22 15:08:52;;;;;;;187.20;27.50;;;;;;;;;;4921761;29;20170;-74
2022/12/22 15:11:18;;;;;;;64.47;21.77;;;;;;;;;;4921696;29;20078;-72
2022/12/22 15:13:45;;;;;;;83.47;22.30;;;;;;;;;;4937590;29;20039;-73
2022/12/22 15:16:13;;;;;;;243.00;27.97;;;;;;;;;;4953858;29;20035;-72
2022/12/22 15:18:39;;;;;;;120.30;24.37;;;;;;;;;;4922123;29;20122;-73
2022/12/22 15:21:05;;;;;;;97.70;23.50;;;;;;;;;;4921841;29;20589;-71
2022/12/22 15:23:32;;;;;;;159.23;24.43;;;;;;;;;;4922083;29;20105;-74
2022/12/22 15:25:57;;;;;;;132.30;25.43;;;;;;;;;;4936605;29;20043;-74
2022/12/22 15:28:23;;;;;;;86.63;23.93;;;;;;;;;;4921673;29;20054;-71
2022/12/22 15:30:49;;;;;;;295.60;29.20;;;;;;;;;;4934353;28;20109;-71
2022/12/22 15:33:16;;;;;;;1075.60;68.10;;;;;;;;;;4955531;28;20042;-69
2022/12/22 15:35:42;;;;;;;93.50;23.33;;;;;;;;;;4940913;28;20496;-69
2022/12/22 15:38:19;;;;;;;141.97;24.57;;;;;;;;;;4972617;28;20034;-70
2022/12/22 15:40:45;;;;;;;73.80;20.63;;;;;;;;;;4943813;29;20035;-69
2022/12/22 15:43:11;;;;;;;78.33;22.23;;;;;;;;;;4921188;29;20488;-70
2022/12/22 15:45:36;;;;;;;164.20;26.40;;;;;;;;;;4937193;29;20053;-70
2022/12/22 15:48:03;;;;;;;73.17;21.93;;;;;;;;;;4921204;29;20126;-70
2022/12/22 15:50:33;;;;;;;57.63;20.43;;;;;;;;;;4921419;29;20043;-70
2022/12/22 15:52:58;;;;;;;79.43;23.70;;;;;;;;;;4936538;29;20035;-70
2022/12/22 15:55:24;;;;;;;50.57;18.67;;;;;;;;;;4920716;29;20474;-70
2022/12/22 15:57:55;;;;;;;51.17;19.87;;;;;;;;;;4921477;29;20042;-70
2022/12/22 16:00:21;;;;;;;43.67;18.52;;;;;;;;;;4937153;29;20093;-69
2022/12/22 16:02:47;;;;;;;51.23;19.67;;;;;;;;;;4921054;29;20572;-70
2022/12/22 16:05:13;;;;;;;49.57;20.37;;;;;;;;;;4937078;29;20059;-70
2022/12/22 16:07:39;;;;;;;51.80;21.17;;;;;;;;;;4920602;29;20035;-71
2022/12/22 16:10:06;;;;;;;30.10;14.13;;;;;;;;;;4932981;29;20050;-71
2022/12/22 16:12:33;;;;;;;32.93;14.23;;;;;;;;;;4935842;29;20035;-70
2022/12/22 16:14:59;;;;;;;29.63;14.67;;;;;;;;;;4921374;29;20110;-71
2022/12/22 16:17:26;;;;;;;23.07;12.13;;;;;;;;;;4921318;29;20134;-69
2022/12/22 16:19:52;;;;;;;27.73;13.37;;;;;;;;;;4920411;29;20043;-68
2022/12/22 16:22:19;;;;;;;27.10;13.40;;;;;;;;;;4936460;29;20110;-67
2022/12/22 16:24:46;;;;;;;29.53;14.90;;;;;;;;;;4952148;29;20047;-69
2022/12/22 16:27:12;;;;;;;23.60;13.13;;;;;;;;;;4920548;29;20093;-68
2022/12/22 16:29:38;;;;;;;22.03;12.23;;;;;;;;;;4935885;29;20178;-71
2022/12/22 16:32:13;;;;;;;21.20;11.57;;;;;;;;;;4951943;29;20031;-69
2022/12/22 16:34:39;;;;;;;21.33;11.27;;;;;;;;;;4936289;29;20533;-69
2022/12/22 16:37:05;;;;;;;22.13;12.30;;;;;;;;;;4920194;29;20067;-70
2022/12/22 16:39:30;;;;;;;35.97;16.10;;;;;;;;;;4919034;29;20103;-69
2022/12/22 16:41:58;;;;;;;24.87;13.30;;;;;;;;;;4920837;29;20126;-70
2022/12/22 16:44:23;;;;;;;27.77;13.57;;;;;;;;;;4920134;29;20089;-70
2022/12/22 16:46:50;;;;;;;27.23;13.93;;;;;;;;;;4936585;29;20039;-68
2022/12/22 16:49:17;;;;;;;24.10;12.63;;;;;;;;;;4917087;29;20042;-68
2022/12/22 16:51:45;;;;;;;26.33;12.87;;;;;;;;;;4934171;29;20203;-68
2022/12/22 16:54:14;;;;;;;19.88;11.43;;;;;;;;;;4934651;29;20092;-68
2022/12/22 16:56:45;;;;;;;22.73;11.73;;;;;;;;;;4919046;29;20383;-68
2022/12/22 16:59:11;;;;;;;17.15;10.15;;;;;;;;;;4950955;29;20046;-75
2022/12/22 17:01:38;;;;;;;20.87;11.53;;;;;;;;;;4917968;29;20496;-71
2022/12/22 17:04:06;;;;;;;26.27;12.00;;;;;;;;;;4948310;29;20054;-71
2022/12/22 17:06:33;;;;;;;18.90;10.33;;;;;;;;;;4950154;29;20143;-70
2022/12/22 17:09:00;;;;;;;17.97;10.87;;;;;;;;;;4918851;29;20042;-70
2022/12/22 17:11:30;;;;;;;19.40;10.70;;;;;;;;;;4948582;29;20046;-70
2022/12/22 17:14:00;;;;;;;19.57;10.93;;;;;;;;;;4917136;29;20043;-68
2022/12/22 17:16:31;;;;;;;17.83;10.25;;;;;;;;;;4935734;29;20063;-74
2022/12/22 17:18:57;;;;;;;19.92;10.75;;;;;;;;;;4927857;29;20047;-68
2022/12/22 17:21:23;;;;;;;21.75;10.90;;;;;;;;;;4916076;29;20383;-70
2022/12/22 17:23:50;;;;;;;22.90;12.00;;;;;;;;;;4916314;29;20031;-68
2022/12/22 17:26:18;;;;;;;20.83;11.40;;;;;;;;;;4917882;29;20070;-69
2022/12/22 17:28:44;;;;;;;22.92;11.80;;;;;;;;;;4950641;29;20035;-70
2022/12/22 17:31:13;;;;;;;22.23;12.00;;;;;;;;;;4915883;29;20047;-70
2022/12/22 17:33:39;;;;;;;23.83;12.73;;;;;;;;;;4918596;29;20446;-70
2022/12/22 17:36:04;;;;;;;21.77;12.00;;;;;;;;;;4933921;29;20039;-70
2022/12/22 17:38:30;;;;;;;25.27;12.70;;;;;;;;;;4918357;29;20079;-69
2022/12/22 17:40:56;;;;;;;27.87;12.87;;;;;;;;;;4918442;29;20396;-72
2022/12/22 17:43:22;;;;;;;26.47;12.57;;;;;;;;;;4903743;28;20105;-69
2022/12/22 17:45:48;;;;;;;24.07;12.33;;;;;;;;;;4912490;29;20375;-68
2022/12/22 17:48:17;;;;;;;21.13;12.47;;;;;;;;;;4932303;29;20093;-71
2022/12/22 17:50:43;;;;;;;26.23;12.33;;;;;;;;;;4921722;29;20094;-71
2022/12/22 17:53:11;;;;;;;25.80;13.17;;;;;;;;;;4920820;29;20382;-69
2022/12/22 17:55:40;;;;;;;26.27;13.07;;;;;;;;;;4922599;29;20039;-69
2022/12/22 17:58:08;;;;;;;26.57;12.20;;;;;;;;;;4937294;29;20438;-81
2022/12/22 18:00:36;;;;;;;25.58;12.63;;;;;;;;;;4951896;29;20067;-79
2022/12/22 18:03:02;;;;;;;22.47;12.37;;;;;;;;;;4933294;29;20059;-75
2022/12/22 18:05:35;;;;;;;25.73;12.05;;;;;;;;;;4918742;29;20059;-78